sensor_id;sensor_type;location;lat;lon;timestamp;P1;durP1;ratioP1;P2;durP2;ratioP2
13439;SDS011;6792;57.698;11.946;2023-04-03T00:00:16;1.20;;;1.10;;
13439;SDS011;6792;57.698;11.946;2023-04-03T00:02:46;2.97;;;1.57;;
13439;SDS011;6792;57.698;11.946;2023-04-03T00:05:15;2.50;;;1.17;;
13439;SDS011;6792;57.698;11.946;2023-04-03T00:07:44;3.60;;;1.27;;
13439;SDS011;6792;57.698;11.946;2023-04-03T00:10:17;2.63;;;1.40;;
13439;SDS011;6792;57.698;11.946;2023-04-03T00:12:48;5.33;;;1.63;;
13439;SDS011;6792;57.698;11.946;2023-04-03T00:15:17;3.83;;;1.20;;
13439;SDS011;6792;57.698;11.946;2023-04-03T00:17:47;2.57;;;1.30;;
13439;SDS011;6792;57.698;11.946;2023-04-03T00:20:16;2.50;;;1.03;;
13439;SDS011;6792;57.698;11.946;2023-04-03T00:22:46;2.37;;;1.37;;
13439;SDS011;6792;57.698;11.946;2023-04-03T00:25:15;1.23;;;0.90;;
13439;SDS011;6792;57.698;11.946;2023-04-03T00:27:46;4.13;;;1.50;;
13439;SDS011;6792;57.698;11.946;2023-04-03T00:30:16;1.93;;;1.20;;
13439;SDS011;6792;57.698;11.946;2023-04-03T00:32:47;4.13;;;1.20;;
13439;SDS011;6792;57.698;11.946;2023-04-03T00:35:18;4.57;;;1.20;;
13439;SDS011;6792;57.698;11.946;2023-04-03T00:37:50;1.43;;;0.90;;
13439;SDS011;6792;57.698;11.946;2023-04-03T00:40:21;3.33;;;1.00;;
13439;SDS011;6792;57.698;11.946;2023-04-03T00:42:54;1.47;;;1.30;;
13439;SDS011;6792;57.698;11.946;2023-04-03T00:45:29;4.60;;;1.43;;
13439;SDS011;6792;57.698;11.946;2023-04-03T00:48:02;3.83;;;1.10;;
13439;SDS011;6792;57.698;11.946;2023-04-03T00:50:33;2.73;;;1.00;;
13439;SDS011;6792;57.698;11.946;2023-04-03T00:53:05;4.27;;;1.57;;
13439;SDS011;6792;57.698;11.946;2023-04-03T00:55:36;2.10;;;1.30;;
13439;SDS011;6792;57.698;11.946;2023-04-03T00:58:07;2.83;;;1.30;;
13439;SDS011;6792;57.698;11.946;2023-04-03T01:00:38;3.43;;;1.10;;
13439;SDS011;6792;57.698;11.946;2023-04-03T01:03:10;4.00;;;1.23;;
13439;SDS011;6792;57.698;11.946;2023-04-03T01:05:39;4.07;;;1.37;;
13439;SDS011;6792;57.698;11.946;2023-04-03T01:08:08;1.50;;;0.97;;
13439;SDS011;6792;57.698;11.946;2023-04-03T01:10:38;2.23;;;0.80;;
13439;SDS011;6792;57.698;11.946;2023-04-03T01:13:18;4.27;;;1.60;;
13439;SDS011;6792;57.698;11.946;2023-04-03T01:15:53;1.73;;;1.07;;
13439;SDS011;6792;57.698;11.946;2023-04-03T01:18:22;6.07;;;1.30;;
13439;SDS011;6792;57.698;11.946;2023-04-03T01:24:23;4.40;;;1.23;;
13439;SDS011;6792;57.698;11.946;2023-04-03T01:26:58;1.83;;;1.10;;
13439;SDS011;6792;57.698;11.946;2023-04-03T01:29:28;2.93;;;1.10;;
13439;SDS011;6792;57.698;11.946;2023-04-03T01:31:58;3.13;;;1.40;;
13439;SDS011;6792;57.698;11.946;2023-04-03T01:34:29;1.77;;;1.00;;
13439;SDS011;6792;57.698;11.946;2023-04-03T01:36:58;1.83;;;1.00;;
13439;SDS011;6792;57.698;11.946;2023-04-03T01:39:28;2.70;;;1.00;;
13439;SDS011;6792;57.698;11.946;2023-04-03T01:41:57;1.50;;;0.90;;
13439;SDS011;6792;57.698;11.946;2023-04-03T01:44:26;1.23;;;0.97;;
13439;SDS011;6792;57.698;11.946;2023-04-03T01:46:56;1.60;;;1.13;;
13439;SDS011;6792;57.698;11.946;2023-04-03T01:49:25;1.50;;;0.93;;
13439;SDS011;6792;57.698;11.946;2023-04-03T01:51:54;2.70;;;1.10;;
13439;SDS011;6792;57.698;11.946;2023-04-03T01:54:24;1.03;;;0.83;;
13439;SDS011;6792;57.698;11.946;2023-04-03T01:56:53;2.10;;;1.47;;
13439;SDS011;6792;57.698;11.946;2023-04-03T01:59:22;2.43;;;1.30;;
13439;SDS011;6792;57.698;11.946;2023-04-03T02:01:51;3.23;;;1.00;;
13439;SDS011;6792;57.698;11.946;2023-04-03T02:04:20;2.33;;;1.07;;
13439;SDS011;6792;57.698;11.946;2023-04-03T02:06:50;1.73;;;1.47;;
13439;SDS011;6792;57.698;11.946;2023-04-03T02:09:19;1.20;;;1.10;;
13439;SDS011;6792;57.698;11.946;2023-04-03T02:11:48;2.87;;;1.10;;
13439;SDS011;6792;57.698;11.946;2023-04-03T02:14:17;3.67;;;1.20;;
13439;SDS011;6792;57.698;11.946;2023-04-03T02:16:48;3.03;;;1.43;;
13439;SDS011;6792;57.698;11.946;2023-04-03T02:19:17;5.13;;;1.33;;
13439;SDS011;6792;57.698;11.946;2023-04-03T02:21:46;1.97;;;1.10;;
13439;SDS011;6792;57.698;11.946;2023-04-03T02:24:16;2.20;;;1.43;;
13439;SDS011;6792;57.698;11.946;2023-04-03T02:26:45;2.97;;;1.10;;
13439;SDS011;6792;57.698;11.946;2023-04-03T02:29:14;5.23;;;1.20;;
13439;SDS011;6792;57.698;11.946;2023-04-03T02:31:43;4.90;;;1.40;;
13439;SDS011;6792;57.698;11.946;2023-04-03T02:34:13;5.60;;;1.20;;
13439;SDS011;6792;57.698;11.946;2023-04-03T02:36:42;6.80;;;1.40;;
13439;SDS011;6792;57.698;11.946;2023-04-03T02:39:11;2.00;;;1.00;;
13439;SDS011;6792;57.698;11.946;2023-04-03T02:41:41;6.93;;;1.33;;
13439;SDS011;6792;57.698;11.946;2023-04-03T02:44:10;2.80;;;1.40;;
13439;SDS011;6792;57.698;11.946;2023-04-03T02:46:40;1.03;;;0.80;;
13439;SDS011;6792;57.698;11.946;2023-04-03T02:49:09;1.43;;;0.90;;
13439;SDS011;6792;57.698;11.946;2023-04-03T02:51:38;1.50;;;0.80;;
13439;SDS011;6792;57.698;11.946;2023-04-03T02:54:07;1.73;;;1.10;;
13439;SDS011;6792;57.698;11.946;2023-04-03T02:56:37;2.33;;;1.00;;
13439;SDS011;6792;57.698;11.946;2023-04-03T02:59:06;2.10;;;1.07;;
13439;SDS011;6792;57.698;11.946;2023-04-03T03:01:36;3.60;;;1.40;;
13439;SDS011;6792;57.698;11.946;2023-04-03T03:04:05;3.57;;;1.07;;
13439;SDS011;6792;57.698;11.946;2023-04-03T03:06:34;1.40;;;1.00;;
13439;SDS011;6792;57.698;11.946;2023-04-03T03:09:03;3.77;;;1.33;;
13439;SDS011;6792;57.698;11.946;2023-04-03T03:11:33;1.60;;;1.00;;
13439;SDS011;6792;57.698;11.946;2023-04-03T03:14:02;2.13;;;0.90;;
13439;SDS011;6792;57.698;11.946;2023-04-03T03:16:31;4.87;;;1.00;;
13439;SDS011;6792;57.698;11.946;2023-04-03T03:19:00;1.47;;;1.10;;
13439;SDS011;6792;57.698;11.946;2023-04-03T03:21:30;2.07;;;0.90;;
13439;SDS011;6792;57.698;11.946;2023-04-03T03:23:59;3.97;;;1.17;;
13439;SDS011;6792;57.698;11.946;2023-04-03T03:26:28;2.60;;;1.40;;
13439;SDS011;6792;57.698;11.946;2023-04-03T03:28:58;2.37;;;1.10;;
13439;SDS011;6792;57.698;11.946;2023-04-03T03:31:27;5.03;;;1.63;;
13439;SDS011;6792;57.698;11.946;2023-04-03T03:33:56;2.53;;;1.00;;
13439;SDS011;6792;57.698;11.946;2023-04-03T03:36:25;3.73;;;1.40;;
13439;SDS011;6792;57.698;11.946;2023-04-03T03:38:55;3.47;;;1.33;;
13439;SDS011;6792;57.698;11.946;2023-04-03T03:41:27;4.33;;;1.73;;
13439;SDS011;6792;57.698;11.946;2023-04-03T03:43:56;4.20;;;1.27;;
13439;SDS011;6792;57.698;11.946;2023-04-03T03:46:26;3.87;;;1.30;;
13439;SDS011;6792;57.698;11.946;2023-04-03T03:48:55;7.07;;;1.77;;
13439;SDS011;6792;57.698;11.946;2023-04-03T03:51:24;3.20;;;1.33;;
13439;SDS011;6792;57.698;11.946;2023-04-03T03:53:54;2.30;;;1.30;;
13439;SDS011;6792;57.698;11.946;2023-04-03T03:56:24;1.87;;;0.93;;
13439;SDS011;6792;57.698;11.946;2023-04-03T03:58:53;6.90;;;1.47;;
13439;SDS011;6792;57.698;11.946;2023-04-03T04:01:23;4.47;;;1.50;;
13439;SDS011;6792;57.698;11.946;2023-04-03T04:03:52;4.83;;;1.13;;
13439;SDS011;6792;57.698;11.946;2023-04-03T04:06:22;6.73;;;1.60;;
13439;SDS011;6792;57.698;11.946;2023-04-03T04:08:52;2.30;;;1.30;;
13439;SDS011;6792;57.698;11.946;2023-04-03T04:11:21;7.03;;;1.33;;
13439;SDS011;6792;57.698;11.946;2023-04-03T04:13:51;5.07;;;1.27;;
13439;SDS011;6792;57.698;11.946;2023-04-03T04:16:20;2.73;;;1.20;;
13439;SDS011;6792;57.698;11.946;2023-04-03T04:18:50;4.97;;;1.40;;
13439;SDS011;6792;57.698;11.946;2023-04-03T04:21:19;5.63;;;1.27;;
13439;SDS011;6792;57.698;11.946;2023-04-03T04:23:48;2.30;;;1.17;;
13439;SDS011;6792;57.698;11.946;2023-04-03T04:26:17;3.83;;;1.27;;
13439;SDS011;6792;57.698;11.946;2023-04-03T04:28:46;3.03;;;1.43;;
13439;SDS011;6792;57.698;11.946;2023-04-03T04:31:16;6.47;;;1.50;;
13439;SDS011;6792;57.698;11.946;2023-04-03T04:33:45;3.87;;;1.40;;
13439;SDS011;6792;57.698;11.946;2023-04-03T04:36:15;5.33;;;1.30;;
13439;SDS011;6792;57.698;11.946;2023-04-03T04:38:44;4.50;;;1.23;;
13439;SDS011;6792;57.698;11.946;2023-04-03T04:41:13;5.17;;;1.63;;
13439;SDS011;6792;57.698;11.946;2023-04-03T04:43:44;9.27;;;1.60;;
13439;SDS011;6792;57.698;11.946;2023-04-03T04:46:13;5.57;;;1.80;;
13439;SDS011;6792;57.698;11.946;2023-04-03T04:48:43;6.00;;;1.57;;
13439;SDS011;6792;57.698;11.946;2023-04-03T04:51:12;14.00;;;2.10;;
13439;SDS011;6792;57.698;11.946;2023-04-03T04:53:42;5.00;;;1.90;;
13439;SDS011;6792;57.698;11.946;2023-04-03T04:56:11;6.00;;;1.47;;
13439;SDS011;6792;57.698;11.946;2023-04-03T04:58:40;6.53;;;1.13;;
13439;SDS011;6792;57.698;11.946;2023-04-03T05:01:11;13.73;;;1.90;;
13439;SDS011;6792;57.698;11.946;2023-04-03T05:03:39;5.80;;;1.37;;
13439;SDS011;6792;57.698;11.946;2023-04-03T05:06:08;7.77;;;1.47;;
13439;SDS011;6792;57.698;11.946;2023-04-03T05:08:37;13.17;;;2.20;;
13439;SDS011;6792;57.698;11.946;2023-04-03T05:11:07;8.77;;;1.30;;
13439;SDS011;6792;57.698;11.946;2023-04-03T05:13:36;10.47;;;1.37;;
13439;SDS011;6792;57.698;11.946;2023-04-03T05:16:05;13.73;;;1.33;;
13439;SDS011;6792;57.698;11.946;2023-04-03T05:18:35;10.23;;;1.87;;
13439;SDS011;6792;57.698;11.946;2023-04-03T05:21:04;6.83;;;1.63;;
13439;SDS011;6792;57.698;11.946;2023-04-03T05:23:34;4.67;;;1.10;;
13439;SDS011;6792;57.698;11.946;2023-04-03T05:26:03;12.10;;;1.83;;
13439;SDS011;6792;57.698;11.946;2023-04-03T05:28:32;9.57;;;1.70;;
13439;SDS011;6792;57.698;11.946;2023-04-03T05:31:04;5.00;;;1.27;;
13439;SDS011;6792;57.698;11.946;2023-04-03T05:33:33;4.50;;;1.90;;
13439;SDS011;6792;57.698;11.946;2023-04-03T05:36:03;6.43;;;1.80;;
13439;SDS011;6792;57.698;11.946;2023-04-03T05:38:33;10.07;;;1.77;;
13439;SDS011;6792;57.698;11.946;2023-04-03T05:41:02;5.03;;;1.90;;
13439;SDS011;6792;57.698;11.946;2023-04-03T05:43:32;16.33;;;2.00;;
13439;SDS011;6792;57.698;11.946;2023-04-03T05:46:03;22.80;;;1.90;;
13439;SDS011;6792;57.698;11.946;2023-04-03T05:48:34;10.17;;;1.50;;
13439;SDS011;6792;57.698;11.946;2023-04-03T05:51:06;8.40;;;1.80;;
13439;SDS011;6792;57.698;11.946;2023-04-03T05:53:38;7.67;;;1.50;;
13439;SDS011;6792;57.698;11.946;2023-04-03T05:56:08;7.00;;;1.73;;
13439;SDS011;6792;57.698;11.946;2023-04-03T05:58:37;16.33;;;2.30;;
13439;SDS011;6792;57.698;11.946;2023-04-03T06:01:07;12.20;;;2.30;;
13439;SDS011;6792;57.698;11.946;2023-04-03T06:03:36;11.20;;;2.30;;
13439;SDS011;6792;57.698;11.946;2023-04-03T06:06:06;13.47;;;2.10;;
13439;SDS011;6792;57.698;11.946;2023-04-03T06:08:35;9.97;;;1.70;;
13439;SDS011;6792;57.698;11.946;2023-04-03T06:11:05;6.20;;;1.80;;
13439;SDS011;6792;57.698;11.946;2023-04-03T06:13:35;19.20;;;2.60;;
13439;SDS011;6792;57.698;11.946;2023-04-03T06:16:05;7.43;;;2.20;;
13439;SDS011;6792;57.698;11.946;2023-04-03T06:18:45;5.07;;;1.37;;
13439;SDS011;6792;57.698;11.946;2023-04-03T06:21:15;4.80;;;1.50;;
13439;SDS011;6792;57.698;11.946;2023-04-03T06:23:44;3.70;;;1.80;;
13439;SDS011;6792;57.698;11.946;2023-04-03T06:26:13;5.10;;;1.50;;
13439;SDS011;6792;57.698;11.946;2023-04-03T06:28:43;13.33;;;1.87;;
13439;SDS011;6792;57.698;11.946;2023-04-03T06:31:12;4.47;;;1.47;;
13439;SDS011;6792;57.698;11.946;2023-04-03T06:33:41;12.67;;;1.87;;
13439;SDS011;6792;57.698;11.946;2023-04-03T06:36:11;4.33;;;1.47;;
13439;SDS011;6792;57.698;11.946;2023-04-03T06:38:41;14.17;;;1.77;;
13439;SDS011;6792;57.698;11.946;2023-04-03T06:41:11;12.37;;;1.47;;
13439;SDS011;6792;57.698;11.946;2023-04-03T06:43:41;34.10;;;3.00;;
13439;SDS011;6792;57.698;11.946;2023-04-03T06:46:12;13.33;;;1.70;;
13439;SDS011;6792;57.698;11.946;2023-04-03T06:48:43;6.03;;;1.40;;
13439;SDS011;6792;57.698;11.946;2023-04-03T06:51:20;18.30;;;1.43;;
13439;SDS011;6792;57.698;11.946;2023-04-03T06:53:51;5.53;;;1.37;;
13439;SDS011;6792;57.698;11.946;2023-04-03T06:56:21;13.00;;;1.60;;
13439;SDS011;6792;57.698;11.946;2023-04-03T06:58:52;7.23;;;1.47;;
13439;SDS011;6792;57.698;11.946;2023-04-03T07:01:23;6.43;;;1.70;;
13439;SDS011;6792;57.698;11.946;2023-04-03T07:03:54;5.90;;;1.70;;
13439;SDS011;6792;57.698;11.946;2023-04-03T07:06:23;8.67;;;1.80;;
13439;SDS011;6792;57.698;11.946;2023-04-03T07:08:54;4.67;;;1.50;;
13439;SDS011;6792;57.698;11.946;2023-04-03T07:11:23;9.27;;;1.80;;
13439;SDS011;6792;57.698;11.946;2023-04-03T07:13:53;8.00;;;1.80;;
13439;SDS011;6792;57.698;11.946;2023-04-03T07:16:22;4.83;;;1.67;;
13439;SDS011;6792;57.698;11.946;2023-04-03T07:18:52;8.73;;;1.50;;
13439;SDS011;6792;57.698;11.946;2023-04-03T07:21:21;4.77;;;1.83;;
13439;SDS011;6792;57.698;11.946;2023-04-03T07:23:50;11.70;;;1.67;;
13439;SDS011;6792;57.698;11.946;2023-04-03T07:26:20;7.10;;;1.60;;
13439;SDS011;6792;57.698;11.946;2023-04-03T07:28:49;6.73;;;1.93;;
13439;SDS011;6792;57.698;11.946;2023-04-03T07:31:19;10.17;;;2.33;;
13439;SDS011;6792;57.698;11.946;2023-04-03T07:33:51;11.47;;;1.87;;
13439;SDS011;6792;57.698;11.946;2023-04-03T07:36:21;5.60;;;1.47;;
13439;SDS011;6792;57.698;11.946;2023-04-03T07:38:51;15.90;;;1.43;;
13439;SDS011;6792;57.698;11.946;2023-04-03T07:41:20;13.27;;;1.87;;
13439;SDS011;6792;57.698;11.946;2023-04-03T07:43:50;10.83;;;1.60;;
13439;SDS011;6792;57.698;11.946;2023-04-03T07:46:19;9.60;;;1.83;;
13439;SDS011;6792;57.698;11.946;2023-04-03T07:48:48;6.53;;;2.03;;
13439;SDS011;6792;57.698;11.946;2023-04-03T07:51:18;7.53;;;1.73;;
13439;SDS011;6792;57.698;11.946;2023-04-03T07:53:47;4.23;;;1.70;;
13439;SDS011;6792;57.698;11.946;2023-04-03T07:56:16;7.90;;;1.43;;
13439;SDS011;6792;57.698;11.946;2023-04-03T07:58:47;9.03;;;1.80;;
13439;SDS011;6792;57.698;11.946;2023-04-03T08:01:19;9.03;;;1.43;;
13439;SDS011;6792;57.698;11.946;2023-04-03T08:03:49;5.57;;;1.50;;
13439;SDS011;6792;57.698;11.946;2023-04-03T08:06:18;5.93;;;1.60;;
13439;SDS011;6792;57.698;11.946;2023-04-03T08:08:47;5.33;;;1.70;;
13439;SDS011;6792;57.698;11.946;2023-04-03T08:11:17;7.33;;;1.53;;
13439;SDS011;6792;57.698;11.946;2023-04-03T08:13:47;10.07;;;1.50;;
13439;SDS011;6792;57.698;11.946;2023-04-03T08:16:17;15.30;;;1.73;;
13439;SDS011;6792;57.698;11.946;2023-04-03T08:18:48;7.57;;;1.33;;
13439;SDS011;6792;57.698;11.946;2023-04-03T08:21:17;6.80;;;1.50;;
13439;SDS011;6792;57.698;11.946;2023-04-03T08:23:48;4.07;;;1.17;;
13439;SDS011;6792;57.698;11.946;2023-04-03T08:26:18;6.23;;;0.97;;
13439;SDS011;6792;57.698;11.946;2023-04-03T08:28:49;6.67;;;1.33;;
13439;SDS011;6792;57.698;11.946;2023-04-03T08:31:18;6.53;;;1.10;;
13439;SDS011;6792;57.698;11.946;2023-04-03T08:33:48;10.40;;;1.20;;
13439;SDS011;6792;57.698;11.946;2023-04-03T08:36:19;7.23;;;1.23;;
13439;SDS011;6792;57.698;11.946;2023-04-03T08:38:49;7.87;;;1.20;;
13439;SDS011;6792;57.698;11.946;2023-04-03T08:41:22;3.63;;;1.00;;
13439;SDS011;6792;57.698;11.946;2023-04-03T08:46:58;6.27;;;0.80;;
13439;SDS011;6792;57.698;11.946;2023-04-03T08:49:31;1.33;;;0.67;;
13439;SDS011;6792;57.698;11.946;2023-04-03T08:52:04;6.67;;;1.00;;
13439;SDS011;6792;57.698;11.946;2023-04-03T08:54:40;1.63;;;0.77;;
13439;SDS011;6792;57.698;11.946;2023-04-03T08:57:10;3.63;;;0.80;;
13439;SDS011;6792;57.698;11.946;2023-04-03T08:59:41;3.57;;;0.50;;
13439;SDS011;6792;57.698;11.946;2023-04-03T09:02:20;3.40;;;0.83;;
13439;SDS011;6792;57.698;11.946;2023-04-03T09:04:53;0.97;;;0.60;;
13439;SDS011;6792;57.698;11.946;2023-04-03T09:07:25;2.07;;;0.63;;
13439;SDS011;6792;57.698;11.946;2023-04-03T09:09:56;5.13;;;0.60;;
13439;SDS011;6792;57.698;11.946;2023-04-03T09:12:27;1.53;;;0.80;;
13439;SDS011;6792;57.698;11.946;2023-04-03T09:15:03;5.13;;;0.40;;
13439;SDS011;6792;57.698;11.946;2023-04-03T09:17:41;1.23;;;0.60;;
13439;SDS011;6792;57.698;11.946;2023-04-03T09:20:14;2.13;;;0.57;;
13439;SDS011;6792;57.698;11.946;2023-04-03T09:22:47;1.43;;;0.43;;
13439;SDS011;6792;57.698;11.946;2023-04-03T09:25:17;1.17;;;0.57;;
13439;SDS011;6792;57.698;11.946;2023-04-03T09:27:49;1.83;;;0.43;;
13439;SDS011;6792;57.698;11.946;2023-04-03T09:30:19;1.30;;;0.60;;
13439;SDS011;6792;57.698;11.946;2023-04-03T09:32:51;3.13;;;0.60;;
13439;SDS011;6792;57.698;11.946;2023-04-03T09:35:22;3.70;;;0.63;;
13439;SDS011;6792;57.698;11.946;2023-04-03T09:37:53;3.07;;;0.70;;
13439;SDS011;6792;57.698;11.946;2023-04-03T09:40:29;5.70;;;0.80;;
13439;SDS011;6792;57.698;11.946;2023-04-03T09:43:03;8.57;;;1.10;;
13439;SDS011;6792;57.698;11.946;2023-04-03T09:45:49;6.50;;;0.70;;
13439;SDS011;6792;57.698;11.946;2023-04-03T09:48:20;7.70;;;0.80;;
13439;SDS011;6792;57.698;11.946;2023-04-03T09:50:55;2.37;;;0.63;;
13439;SDS011;6792;57.698;11.946;2023-04-03T09:53:30;3.27;;;0.73;;
13439;SDS011;6792;57.698;11.946;2023-04-03T09:56:03;1.33;;;0.60;;
13439;SDS011;6792;57.698;11.946;2023-04-03T09:58:38;2.10;;;0.70;;
13439;SDS011;6792;57.698;11.946;2023-04-03T10:01:20;2.73;;;0.50;;
13439;SDS011;6792;57.698;11.946;2023-04-03T10:04:01;1.40;;;0.30;;
13439;SDS011;6792;57.698;11.946;2023-04-03T10:06:38;1.63;;;0.50;;
13439;SDS011;6792;57.698;11.946;2023-04-03T10:09:18;6.47;;;0.67;;
13439;SDS011;6792;57.698;11.946;2023-04-03T10:11:57;9.13;;;0.70;;
13439;SDS011;6792;57.698;11.946;2023-04-03T10:14:29;1.33;;;0.47;;
13439;SDS011;6792;57.698;11.946;2023-04-03T10:17:01;3.53;;;0.50;;
13439;SDS011;6792;57.698;11.946;2023-04-03T10:19:34;2.30;;;0.50;;
13439;SDS011;6792;57.698;11.946;2023-04-03T10:22:15;1.67;;;0.50;;
13439;SDS011;6792;57.698;11.946;2023-04-03T10:24:52;3.47;;;0.50;;
13439;SDS011;6792;57.698;11.946;2023-04-03T10:27:31;2.37;;;0.80;;
13439;SDS011;6792;57.698;11.946;2023-04-03T10:30:10;1.60;;;0.53;;
13439;SDS011;6792;57.698;11.946;2023-04-03T10:32:51;6.03;;;0.80;;
13439;SDS011;6792;57.698;11.946;2023-04-03T10:35:30;3.97;;;0.90;;
13439;SDS011;6792;57.698;11.946;2023-04-03T10:38:09;4.77;;;0.60;;
13439;SDS011;6792;57.698;11.946;2023-04-03T10:40:44;1.50;;;0.97;;
13439;SDS011;6792;57.698;11.946;2023-04-03T10:43:17;5.00;;;0.80;;
13439;SDS011;6792;57.698;11.946;2023-04-03T10:45:53;6.77;;;1.13;;
13439;SDS011;6792;57.698;11.946;2023-04-03T10:48:29;8.73;;;0.83;;
13439;SDS011;6792;57.698;11.946;2023-04-03T10:51:06;3.10;;;0.80;;
13439;SDS011;6792;57.698;11.946;2023-04-03T10:53:42;7.50;;;1.07;;
13439;SDS011;6792;57.698;11.946;2023-04-03T10:56:15;10.57;;;1.00;;
13439;SDS011;6792;57.698;11.946;2023-04-03T10:58:49;7.83;;;0.90;;
13439;SDS011;6792;57.698;11.946;2023-04-03T11:01:22;7.93;;;0.73;;
13439;SDS011;6792;57.698;11.946;2023-04-03T11:03:56;1.30;;;0.70;;
13439;SDS011;6792;57.698;11.946;2023-04-03T11:06:28;0.90;;;0.77;;
13439;SDS011;6792;57.698;11.946;2023-04-03T11:09:01;2.10;;;0.80;;
13439;SDS011;6792;57.698;11.946;2023-04-03T11:11:33;3.23;;;0.70;;
13439;SDS011;6792;57.698;11.946;2023-04-03T11:14:05;2.70;;;0.70;;
13439;SDS011;6792;57.698;11.946;2023-04-03T11:16:42;2.40;;;0.43;;
13439;SDS011;6792;57.698;11.946;2023-04-03T11:19:16;1.20;;;0.70;;
13439;SDS011;6792;57.698;11.946;2023-04-03T11:21:52;2.33;;;0.70;;
13439;SDS011;6792;57.698;11.946;2023-04-03T11:24:25;0.63;;;0.43;;
13439;SDS011;6792;57.698;11.946;2023-04-03T11:26:57;1.63;;;0.90;;
13439;SDS011;6792;57.698;11.946;2023-04-03T11:29:31;0.83;;;0.60;;
13439;SDS011;6792;57.698;11.946;2023-04-03T11:32:10;2.47;;;0.50;;
13439;SDS011;6792;57.698;11.946;2023-04-03T11:34:58;3.67;;;0.40;;
13439;SDS011;6792;57.698;11.946;2023-04-03T11:37:33;3.27;;;0.40;;
13439;SDS011;6792;57.698;11.946;2023-04-03T11:40:04;0.40;;;0.37;;
13439;SDS011;6792;57.698;11.946;2023-04-03T11:42:37;1.70;;;0.40;;
13439;SDS011;6792;57.698;11.946;2023-04-03T11:45:24;1.60;;;0.50;;
13439;SDS011;6792;57.698;11.946;2023-04-03T11:47:56;0.73;;;0.30;;
13439;SDS011;6792;57.698;11.946;2023-04-03T11:50:40;1.77;;;0.53;;
13439;SDS011;6792;57.698;11.946;2023-04-03T11:53:28;0.37;;;0.20;;
13439;SDS011;6792;57.698;11.946;2023-04-03T11:59:19;4.03;;;0.47;;
13439;SDS011;6792;57.698;11.946;2023-04-03T12:01:51;1.30;;;0.63;;
13439;SDS011;6792;57.698;11.946;2023-04-03T12:04:22;1.23;;;0.40;;
13439;SDS011;6792;57.698;11.946;2023-04-03T12:06:58;1.30;;;0.57;;
13439;SDS011;6792;57.698;11.946;2023-04-03T12:12:44;1.07;;;0.33;;
13439;SDS011;6792;57.698;11.946;2023-04-03T12:24:37;3.93;;;0.50;;
13439;SDS011;6792;57.698;11.946;2023-04-03T12:27:17;0.40;;;0.23;;
13439;SDS011;6792;57.698;11.946;2023-04-03T12:29:52;1.23;;;0.30;;
13439;SDS011;6792;57.698;11.946;2023-04-03T12:32:43;1.90;;;0.40;;
13439;SDS011;6792;57.698;11.946;2023-04-03T12:35:23;0.40;;;0.40;;
13439;SDS011;6792;57.698;11.946;2023-04-03T12:38:02;0.83;;;0.30;;
13439;SDS011;6792;57.698;11.946;2023-04-03T12:40:51;0.90;;;0.63;;
13439;SDS011;6792;57.698;11.946;2023-04-03T12:43:37;2.37;;;0.60;;
13439;SDS011;6792;57.698;11.946;2023-04-03T12:46:13;1.07;;;0.37;;
13439;SDS011;6792;57.698;11.946;2023-04-03T12:48:48;1.57;;;0.50;;
13439;SDS011;6792;57.698;11.946;2023-04-03T12:51:21;8.60;;;0.60;;
13439;SDS011;6792;57.698;11.946;2023-04-03T12:53:52;1.60;;;0.63;;
13439;SDS011;6792;57.698;11.946;2023-04-03T12:56:25;2.67;;;0.70;;
13439;SDS011;6792;57.698;11.946;2023-04-03T12:58:56;1.73;;;0.47;;
13439;SDS011;6792;57.698;11.946;2023-04-03T13:01:41;4.73;;;0.60;;
13439;SDS011;6792;57.698;11.946;2023-04-03T13:04:11;1.90;;;0.83;;
13439;SDS011;6792;57.698;11.946;2023-04-03T13:06:41;1.70;;;0.70;;
13439;SDS011;6792;57.698;11.946;2023-04-03T13:09:19;0.87;;;0.43;;
13439;SDS011;6792;57.698;11.946;2023-04-03T13:11:50;2.63;;;0.50;;
13439;SDS011;6792;57.698;11.946;2023-04-03T13:14:22;3.33;;;0.40;;
13439;SDS011;6792;57.698;11.946;2023-04-03T13:16:55;3.27;;;0.73;;
13439;SDS011;6792;57.698;11.946;2023-04-03T13:19:26;6.13;;;1.43;;
13439;SDS011;6792;57.698;11.946;2023-04-03T13:22:01;4.17;;;0.90;;
13439;SDS011;6792;57.698;11.946;2023-04-03T13:24:32;5.57;;;1.00;;
13439;SDS011;6792;57.698;11.946;2023-04-03T13:27:04;2.33;;;0.40;;
13439;SDS011;6792;57.698;11.946;2023-04-03T13:29:35;4.40;;;0.40;;
13439;SDS011;6792;57.698;11.946;2023-04-03T13:32:05;1.63;;;0.40;;
13439;SDS011;6792;57.698;11.946;2023-04-03T13:34:38;1.85;;;0.60;;
13439;SDS011;6792;57.698;11.946;2023-04-03T13:37:11;2.15;;;0.60;;
13439;SDS011;6792;57.698;11.946;2023-04-03T13:39:56;5.70;;;0.42;;
13439;SDS011;6792;57.698;11.946;2023-04-03T13:42:28;2.92;;;0.53;;
13439;SDS011;6792;57.698;11.946;2023-04-03T13:45:18;2.65;;;0.40;;
13439;SDS011;6792;57.698;11.946;2023-04-03T13:47:50;4.83;;;0.65;;
13439;SDS011;6792;57.698;11.946;2023-04-03T13:50:23;1.35;;;0.50;;
13439;SDS011;6792;57.698;11.946;2023-04-03T13:52:53;0.40;;;0.40;;
13439;SDS011;6792;57.698;11.946;2023-04-03T13:55:26;3.40;;;0.90;;
13439;SDS011;6792;57.698;11.946;2023-04-03T13:57:58;2.40;;;0.62;;
13439;SDS011;6792;57.698;11.946;2023-04-03T14:00:31;2.12;;;0.60;;
13439;SDS011;6792;57.698;11.946;2023-04-03T14:03:12;2.83;;;0.50;;
13439;SDS011;6792;57.698;11.946;2023-04-03T14:05:43;1.77;;;0.40;;
13439;SDS011;6792;57.698;11.946;2023-04-03T14:08:12;2.52;;;0.72;;
13439;SDS011;6792;57.698;11.946;2023-04-03T14:10:42;2.60;;;0.60;;
13439;SDS011;6792;57.698;11.946;2023-04-03T14:13:13;4.15;;;0.70;;
13439;SDS011;6792;57.698;11.946;2023-04-03T14:15:45;6.80;;;0.60;;
13439;SDS011;6792;57.698;11.946;2023-04-03T14:18:19;1.40;;;0.55;;
13439;SDS011;6792;57.698;11.946;2023-04-03T14:20:49;2.10;;;1.27;;
13439;SDS011;6792;57.698;11.946;2023-04-03T14:23:18;2.45;;;0.72;;
13439;SDS011;6792;57.698;11.946;2023-04-03T14:25:48;1.98;;;0.42;;
13439;SDS011;6792;57.698;11.946;2023-04-03T14:28:17;0.80;;;0.50;;
13439;SDS011;6792;57.698;11.946;2023-04-03T14:30:49;3.23;;;0.67;;
13439;SDS011;6792;57.698;11.946;2023-04-03T14:33:20;4.53;;;0.80;;
13439;SDS011;6792;57.698;11.946;2023-04-03T14:35:50;4.47;;;0.67;;
13439;SDS011;6792;57.698;11.946;2023-04-03T14:38:24;2.43;;;0.43;;
13439;SDS011;6792;57.698;11.946;2023-04-03T14:40:56;4.63;;;0.60;;
13439;SDS011;6792;57.698;11.946;2023-04-03T14:43:25;3.47;;;0.70;;
13439;SDS011;6792;57.698;11.946;2023-04-03T14:45:54;0.70;;;0.50;;
13439;SDS011;6792;57.698;11.946;2023-04-03T14:48:25;8.17;;;0.97;;
13439;SDS011;6792;57.698;11.946;2023-04-03T14:50:55;3.70;;;0.40;;
13439;SDS011;6792;57.698;11.946;2023-04-03T14:53:24;3.40;;;0.50;;
13439;SDS011;6792;57.698;11.946;2023-04-03T14:55:55;1.43;;;0.50;;
13439;SDS011;6792;57.698;11.946;2023-04-03T14:58:24;1.90;;;0.83;;
13439;SDS011;6792;57.698;11.946;2023-04-03T15:00:55;1.93;;;0.80;;
13439;SDS011;6792;57.698;11.946;2023-04-03T15:03:24;6.30;;;0.73;;
13439;SDS011;6792;57.698;11.946;2023-04-03T15:05:56;3.13;;;0.50;;
13439;SDS011;6792;57.698;11.946;2023-04-03T15:08:26;1.77;;;1.10;;
13439;SDS011;6792;57.698;11.946;2023-04-03T15:10:57;1.37;;;1.10;;
13439;SDS011;6792;57.698;11.946;2023-04-03T15:13:27;2.00;;;0.70;;
13439;SDS011;6792;57.698;11.946;2023-04-03T15:15:56;1.77;;;0.40;;
13439;SDS011;6792;57.698;11.946;2023-04-03T15:18:26;1.97;;;0.40;;
13439;SDS011;6792;57.698;11.946;2023-04-03T15:20:57;4.10;;;0.57;;
13439;SDS011;6792;57.698;11.946;2023-04-03T15:23:26;5.53;;;0.67;;
13439;SDS011;6792;57.698;11.946;2023-04-03T15:25:56;1.90;;;0.40;;
13439;SDS011;6792;57.698;11.946;2023-04-03T15:28:27;2.50;;;0.60;;
13439;SDS011;6792;57.698;11.946;2023-04-03T15:30:57;1.23;;;0.67;;
13439;SDS011;6792;57.698;11.946;2023-04-03T15:33:30;3.53;;;0.50;;